Time;durP1;ratioP1;P1;durP2;ratioP2;P2;SDS_P1;SDS_P2;PMS_P1;PMS_P2;Temp;Humidity;BMP_temperature;BMP_pressure;BME280_temperature;BME280_humidity;BME280_pressure;Samples;Min_cycle;Max_cycle;Signal;HPM_P1;HPM_P2
2023/04/11 00:01:54;;;;;;;70.07;26.75;;;3.60;99.90;;;;;;4448592;28;659757;-68
2023/04/11 00:04:41;;;;;;;62.70;27.03;;;3.60;99.90;;;;;;4429249;28;658961;-68
2023/04/11 00:07:29;;;;;;;65.77;26.97;;;3.60;99.90;;;;;;4448992;28;658859;-68
2023/04/11 00:10:17;;;;;;;73.17;28.50;;;3.50;99.90;;;;;;4425121;28;659205;-68
2023/04/11 00:13:06;;;;;;;71.73;28.90;;;3.40;99.90;;;;;;4420792;28;659155;-68
2023/04/11 00:15:54;;;;;;;65.37;26.77;;;3.40;99.90;;;;;;4426100;28;659449;-68
2023/04/11 00:18:43;;;;;;;77.50;28.17;;;3.30;99.90;;;;;;4404493;28;658695;-68
2023/04/11 00:21:30;;;;;;;64.80;27.13;;;3.30;99.90;;;;;;4405032;28;658733;-68
2023/04/11 00:24:18;;;;;;;72.53;28.30;;;3.30;99.90;;;;;;4423236;28;659522;-68
2023/04/11 00:27:07;;;;;;;66.00;27.27;;;3.30;99.90;;;;;;4413504;28;658644;-68
2023/04/11 00:29:56;;;;;;;72.47;28.30;;;3.30;99.90;;;;;;4423258;28;658860;-68
2023/04/11 00:32:44;;;;;;;70.90;28.97;;;3.20;99.90;;;;;;4400288;28;659111;-68
2023/04/11 00:35:33;;;;;;;75.10;29.20;;;3.20;99.90;;;;;;4412821;28;658468;-68
2023/04/11 00:38:20;;;;;;;101.20;28.80;;;3.20;99.90;;;;;;4408173;28;658171;-68
2023/04/11 00:41:07;;;;;;;94.93;30.77;;;3.10;99.90;;;;;;4424722;28;661296;-68
2023/04/11 00:43:57;;;;;;;71.43;29.70;;;3.10;99.90;;;;;;4419243;28;658828;-68
2023/04/11 00:46:44;;;;;;;81.27;31.03;;;3.00;99.90;;;;;;4423003;28;659215;-68
2023/04/11 00:49:31;;;;;;;78.63;32.73;;;3.00;99.90;;;;;;4408438;28;659633;-68
2023/04/11 00:52:19;;;;;;;76.10;29.50;;;3.00;99.90;;;;;;4443073;28;658408;-68
2023/04/11 00:55:07;;;;;;;71.53;28.60;;;2.90;99.90;;;;;;4430056;28;659207;-68
2023/04/11 00:57:54;;;;;;;57.23;25.73;;;2.90;99.90;;;;;;4448843;28;658899;-68
2023/04/11 01:00:43;;;;;;;65.00;25.37;;;2.90;99.90;;;;;;4430436;28;658588;-68
2023/04/11 01:03:30;;;;;;;61.35;24.45;;;2.90;99.90;;;;;;4430264;28;658721;-68
2023/04/11 01:06:18;;;;;;;62.50;23.83;;;2.80;99.90;;;;;;4449592;28;660434;-68
2023/04/11 01:09:05;;;;;;;56.43;23.10;;;2.90;99.90;;;;;;4429766;28;658756;-68
2023/04/11 01:11:53;;;;;;;107.37;25.57;;;2.80;99.90;;;;;;4449049;28;659866;-68
2023/04/11 01:14:40;;;;;;;60.53;23.43;;;2.80;99.90;;;;;;4437171;28;659390;-68
2023/04/11 01:17:29;;;;;;;59.67;23.27;;;2.70;99.90;;;;;;4448722;28;660239;-68
2023/04/11 01:20:16;;;;;;;62.33;24.80;;;2.70;99.90;;;;;;4430384;28;659186;-68
2023/04/11 01:23:03;;;;;;;61.17;25.47;;;2.60;99.90;;;;;;4449058;28;659326;-68
2023/04/11 01:25:52;;;;;;;59.73;24.70;;;2.70;99.90;;;;;;4429334;28;658586;-68
2023/04/11 01:28:39;;;;;;;68.40;25.87;;;2.60;99.90;;;;;;4449085;28;658296;-68
2023/04/11 01:31:26;;;;;;;57.20;24.35;;;2.60;99.90;;;;;;4429952;28;659322;-68
2023/04/11 01:34:14;;;;;;;63.27;26.30;;;2.60;99.90;;;;;;4448866;28;659730;-68
2023/04/11 01:37:01;;;;;;;59.77;24.27;;;2.60;99.90;;;;;;4429998;28;658516;-68
2023/04/11 01:39:48;;;;;;;58.15;25.02;;;2.60;99.90;;;;;;4448965;28;659168;-68
2023/04/11 01:42:37;;;;;;;63.93;25.70;;;2.60;99.90;;;;;;4429587;28;659157;-68
2023/04/11 01:45:25;;;;;;;62.90;25.50;;;2.50;99.90;;;;;;4448855;28;658562;-68
2023/04/11 01:48:12;;;;;;;75.13;28.90;;;2.50;99.90;;;;;;4425777;27;660330;-68
2023/04/11 01:51:00;;;;;;;173.10;29.67;;;2.50;99.90;;;;;;4443472;28;658575;-68
2023/04/11 01:53:47;;;;;;;57.50;22.97;;;2.50;99.90;;;;;;4450856;28;661038;-68
2023/04/11 01:56:35;;;;;;;67.23;26.33;;;2.40;99.90;;;;;;4452367;28;660195;-68
2023/04/11 01:59:23;;;;;;;88.53;31.87;;;2.30;99.90;;;;;;4433265;28;659653;-68
2023/04/11 02:02:13;;;;;;;144.07;43.87;;;2.40;99.90;;;;;;4433388;28;659242;-68
2023/04/11 02:05:04;;;;;;;96.67;36.77;;;2.40;99.90;;;;;;4431725;28;660136;-68
2023/04/11 02:07:55;;;;;;;144.88;36.42;;;2.50;99.90;;;;;;4432896;28;658950;-68
2023/04/11 02:10:45;;;;;;;92.07;32.37;;;2.50;99.90;;;;;;4429745;28;660628;-68
2023/04/11 02:13:36;;;;;;;141.97;34.00;;;2.50;99.90;;;;;;4432803;28;659367;-68
2023/04/11 02:16:28;;;;;;;102.53;32.93;;;2.50;99.90;;;;;;4427597;28;660581;-68
2023/04/11 02:19:19;;;;;;;446.53;36.87;;;2.50;99.90;;;;;;4407288;28;659389;-68
2023/04/11 02:22:10;;;;;;;290.43;29.80;;;2.50;99.90;;;;;;4431385;28;660433;-67
2023/04/11 02:25:01;;;;;;;400.07;30.57;;;2.40;99.90;;;;;;4428199;28;660132;-67
2023/04/11 02:27:52;;;;;;;131.85;32.42;;;2.30;99.90;;;;;;4427229;28;661001;-67
2023/04/11 02:30:42;;;;;;;261.20;39.67;;;2.30;99.90;;;;;;4427274;28;659963;-67
2023/04/11 02:33:35;;;;;;;489.83;39.67;;;2.30;99.90;;;;;;4427310;28;659938;-67
2023/04/11 02:36:25;;;;;;;449.10;40.03;;;2.30;99.90;;;;;;4420574;28;660896;-67
2023/04/11 02:39:15;;;;;;;556.13;40.63;;;2.20;99.90;;;;;;4429493;28;660198;-67
2023/04/11 02:42:06;;;;;;;328.60;36.33;;;2.30;99.90;;;;;;4426727;28;660391;-68
2023/04/11 02:44:57;;;;;;;380.77;29.67;;;2.30;99.90;;;;;;4427001;28;661269;-68
2023/04/11 02:47:48;;;;;;;649.03;37.93;;;2.30;99.90;;;;;;4427212;28;659912;-68
2023/04/11 02:50:41;;;;;;;296.33;31.77;;;2.20;99.90;;;;;;4430718;28;659636;-67
2023/04/11 02:53:31;;;;;;;127.77;31.50;;;2.20;99.90;;;;;;4429427;28;661386;-67
2023/04/11 02:56:22;;;;;;;149.33;28.33;;;2.20;99.90;;;;;;4425611;28;659710;-67
2023/04/11 02:59:12;;;;;;;79.23;28.93;;;2.10;99.90;;;;;;4424834;28;659927;-67
2023/04/11 03:02:03;;;;;;;90.33;30.93;;;2.10;99.90;;;;;;4404473;28;658358;-67
2023/04/11 03:04:53;;;;;;;93.27;31.63;;;2.10;99.90;;;;;;4429530;28;658492;-67
2023/04/11 03:07:45;;;;;;;109.27;31.13;;;2.10;99.90;;;;;;4430686;28;659006;-67
2023/04/11 03:10:36;;;;;;;169.53;31.77;;;2.10;99.90;;;;;;4424342;28;660661;-67
2023/04/11 03:13:29;;;;;;;95.63;32.00;;;2.10;99.90;;;;;;4426641;28;660008;-68
2023/04/11 03:16:19;;;;;;;254.77;32.00;;;2.10;99.90;;;;;;4430692;28;658784;-67
2023/04/11 03:19:09;;;;;;;183.80;32.97;;;2.20;99.90;;;;;;4429300;28;660127;-67
2023/04/11 03:22:01;;;;;;;515.13;35.80;;;2.10;99.90;;;;;;4429277;28;660054;-67
2023/04/11 03:24:54;;;;;;;1109.80;48.50;;;2.10;99.90;;;;;;4424205;28;660331;-67
2023/04/11 03:27:44;;;;;;;191.07;32.83;;;2.10;99.90;;;;;;4427472;28;661632;-68
2023/04/11 03:30:35;;;;;;;139.27;30.97;;;2.10;99.90;;;;;;4428988;28;660262;-67
2023/04/11 03:33:25;;;;;;;100.23;28.00;;;2.10;99.90;;;;;;4424886;28;661195;-67
2023/04/11 03:36:16;;;;;;;317.63;30.87;;;2.10;99.90;;;;;;4425138;28;661080;-67
2023/04/11 03:39:06;;;;;;;146.57;27.83;;;2.00;99.90;;;;;;4425118;28;660714;-68
2023/04/11 03:42:00;;;;;;;92.53;32.10;;;2.10;99.90;;;;;;4424730;28;659665;-67
2023/04/11 03:44:50;;;;;;;87.60;29.37;;;2.10;99.90;;;;;;4402976;28;659114;-67
2023/04/11 03:47:41;;;;;;;63.50;26.33;;;2.00;99.90;;;;;;4425750;28;659719;-67
2023/04/11 03:50:32;;;;;;;58.50;23.90;;;2.00;99.90;;;;;;4425513;28;659137;-67
2023/04/11 03:53:22;;;;;;;63.27;24.47;;;2.00;99.90;;;;;;4409833;28;658721;-67
2023/04/11 03:56:13;;;;;;;202.90;27.20;;;2.00;99.90;;;;;;4425758;28;658454;-67
2023/04/11 03:59:05;;;;;;;76.73;27.27;;;2.00;99.90;;;;;;4428815;28;660078;-67
2023/04/11 04:01:55;;;;;;;80.67;28.67;;;2.00;99.90;;;;;;4425625;28;660123;-67
2023/04/11 04:04:49;;;;;;;150.35;27.85;;;2.00;99.90;;;;;;4429401;28;659099;-67
2023/04/11 04:07:39;;;;;;;92.77;34.00;;;2.00;99.90;;;;;;4427134;28;659821;-67
2023/04/11 04:10:30;;;;;;;73.90;30.43;;;1.90;99.90;;;;;;4425736;28;659601;-67
2023/04/11 04:13:20;;;;;;;118.50;29.17;;;1.90;99.90;;;;;;4406852;28;660409;-67
2023/04/11 04:16:13;;;;;;;70.90;26.45;;;1.90;99.90;;;;;;4420511;28;661418;-67
2023/04/11 04:19:03;;;;;;;92.30;31.30;;;1.90;99.90;;;;;;4406425;28;659125;-68
2023/04/11 04:21:57;;;;;;;69.07;29.23;;;2.00;99.90;;;;;;4429784;28;659437;-67
2023/04/11 04:24:47;;;;;;;88.60;29.03;;;2.00;99.90;;;;;;4424622;28;659009;-67
2023/04/11 04:27:43;;;;;;;70.53;28.00;;;2.00;99.90;;;;;;4426389;28;658189;-67
2023/04/11 04:30:36;;;;;;;89.37;32.73;;;2.10;99.90;;;;;;4410633;28;658903;-67
2023/04/11 04:33:31;;;;;;;89.37;33.87;;;2.30;99.90;;;;;;4425657;28;659375;-67
2023/04/11 04:36:25;;;;;;;93.00;34.23;;;2.50;99.90;;;;;;4424548;28;659305;-67
2023/04/11 04:39:19;;;;;;;103.87;36.97;;;2.80;99.90;;;;;;4402261;28;660078;-67
2023/04/11 04:42:09;;;;;;;108.03;39.93;;;3.10;99.90;;;;;;4399519;28;661458;-67
2023/04/11 04:45:00;;;;;;;123.33;43.23;;;3.30;99.90;;;;;;4424029;28;659613;-67
2023/04/11 04:47:50;;;;;;;119.80;41.67;;;3.50;99.90;;;;;;4427738;28;660728;-67
2023/04/11 04:50:44;;;;;;;120.17;40.93;;;3.80;99.90;;;;;;4423463;28;660438;-67
2023/04/11 04:53:37;;;;;;;130.90;40.83;;;3.90;99.90;;;;;;4423602;28;660822;-67
2023/04/11 04:56:29;;;;;;;114.43;40.47;;;4.30;99.90;;;;;;4423681;28;660476;-67
2023/04/11 04:59:19;;;;;;;118.47;40.70;;;4.40;99.90;;;;;;4400331;28;660853;-68
2023/04/11 05:02:10;;;;;;;124.43;41.93;;;4.70;99.90;;;;;;4423824;28;660928;-67
2023/04/11 05:05:02;;;;;;;114.17;39.13;;;4.80;99.90;;;;;;4426864;28;660104;-67
2023/04/11 05:07:55;;;;;;;92.37;35.00;;;4.90;99.90;;;;;;4417337;28;659469;-67
2023/04/11 05:10:46;;;;;;;85.13;36.40;;;5.10;99.90;;;;;;4428326;28;659068;-68
2023/04/11 05:13:37;;;;;;;92.83;38.33;;;5.20;99.90;;;;;;4424476;28;659074;-67
2023/04/11 05:16:28;;;;;;;89.03;38.43;;;5.40;99.90;;;;;;4424501;28;658431;-67
2023/04/11 05:19:18;;;;;;;87.77;37.57;;;5.50;99.90;;;;;;4396359;28;658866;-67
2023/04/11 05:22:09;;;;;;;79.70;33.43;;;5.70;99.90;;;;;;4412373;28;659251;-67
2023/04/11 05:25:02;;;;;;;76.23;32.83;;;5.80;99.90;;;;;;4424862;28;659500;-67
2023/04/11 05:27:53;;;;;;;64.03;26.50;;;5.90;99.90;;;;;;4402653;28;658338;-67
2023/04/11 05:30:44;;;;;;;52.40;24.93;;;6.00;99.90;;;;;;4428544;28;658635;-67
2023/04/11 05:33:35;;;;;;;52.47;23.83;;;6.10;99.90;;;;;;4425250;28;658488;-67
2023/04/11 05:36:27;;;;;;;50.23;24.53;;;6.30;99.90;;;;;;4424897;28;659634;-67
2023/04/11 05:39:18;;;;;;;50.27;24.70;;;6.30;99.90;;;;;;4424366;28;659165;-67
2023/04/11 05:42:10;;;;;;;48.23;25.23;;;6.50;99.90;;;;;;4410795;28;659083;-68
2023/04/11 05:45:01;;;;;;;50.10;25.73;;;6.70;99.90;;;;;;4428440;28;659789;-67
2023/04/11 05:47:51;;;;;;;48.60;27.23;;;6.80;99.90;;;;;;4424678;28;659084;-68
2023/04/11 05:50:42;;;;;;;34.00;18.83;;;6.90;99.90;;;;;;4424574;28;659533;-67
2023/04/11 05:53:33;;;;;;;26.97;14.50;;;7.20;99.90;;;;;;4424158;28;659400;-67
2023/04/11 05:56:24;;;;;;;24.13;12.90;;;7.40;99.90;;;;;;4428442;28;658314;-67
2023/04/11 05:59:16;;;;;;;22.40;12.70;;;7.50;99.90;;;;;;4427885;28;658926;-67
2023/04/11 06:02:07;;;;;;;25.83;13.83;;;7.70;99.90;;;;;;4423077;28;659278;-68
2023/04/11 06:04:56;;;;;;;27.53;15.50;;;7.90;99.90;;;;;;4407991;28;658700;-68
2023/04/11 06:07:47;;;;;;;29.87;15.50;;;8.00;99.90;;;;;;4422796;28;659212;-67
2023/04/11 06:10:38;;;;;;;27.33;14.10;;;8.20;99.90;;;;;;4407483;28;659205;-67
2023/04/11 06:13:28;;;;;;;30.27;15.63;;;8.40;99.90;;;;;;4405392;28;659499;-67
2023/04/11 06:16:20;;;;;;;35.50;16.77;;;8.40;99.90;;;;;;4427075;28;659164;-68
2023/04/11 06:19:11;;;;;;;33.43;16.67;;;8.60;99.90;;;;;;4422834;28;659405;-67
2023/04/11 06:21:59;;;;;;;32.47;16.40;;;8.70;99.90;;;;;;4424158;28;658947;-67
2023/04/11 06:24:46;;;;;;;32.97;16.50;;;8.90;99.90;;;;;;4427532;28;658555;-68
2023/04/11 06:27:33;;;;;;;34.77;16.60;;;9.00;99.90;;;;;;4450574;28;660333;-68
2023/04/11 06:30:23;;;;;;;29.83;14.57;;;9.10;99.90;;;;;;4426692;28;658713;-68
2023/04/11 06:33:12;;;;;;;28.00;13.00;;;9.20;99.90;;;;;;4437750;28;659143;-68
2023/04/11 06:35:59;;;;;;;26.17;12.90;;;9.40;99.90;;;;;;4447308;28;659068;-68
2023/04/11 06:38:46;;;;;;;22.27;12.93;;;9.60;99.90;;;;;;4428208;28;658644;-68
2023/04/11 06:41:35;;;;;;;24.67;13.03;;;9.70;99.90;;;;;;4454106;28;659527;-68
2023/04/11 06:44:23;;;;;;;19.53;10.40;;;9.90;99.90;;;;;;4427291;28;659860;-68
2023/04/11 06:47:13;;;;;;;15.83;8.93;;;10.00;99.90;;;;;;4439808;28;659605;-69
2023/04/11 06:50:05;;;;;;;12.87;7.30;;;10.20;99.90;;;;;;4442476;28;658540;-69
2023/04/11 06:52:54;;;;;;;13.23;6.53;;;10.40;99.90;;;;;;4429839;28;659856;-69
2023/04/11 06:55:41;;;;;;;10.50;5.67;;;10.50;99.90;;;;;;4428381;28;658841;-69
2023/04/11 06:58:29;;;;;;;9.77;5.10;;;10.70;99.90;;;;;;4450889;28;659224;-69
2023/04/11 07:01:16;;;;;;;8.63;6.00;;;10.80;99.90;;;;;;4433999;28;657536;-69
2023/04/11 07:04:03;;;;;;;7.70;5.50;;;10.80;99.90;;;;;;4453715;28;658969;-69
2023/04/11 07:06:52;;;;;;;10.10;6.13;;;10.90;99.90;;;;;;4433202;28;657754;-69
2023/04/11 07:09:39;;;;;;;13.10;6.23;;;10.90;99.90;;;;;;4451525;28;659536;-69
2023/04/11 07:12:26;;;;;;;9.40;5.70;;;10.80;99.90;;;;;;4431744;28;659744;-69
2023/04/11 07:15:14;;;;;;;9.50;5.60;;;10.80;99.90;;;;;;4452666;28;657682;-69
2023/04/11 07:18:01;;;;;;;10.33;5.50;;;10.70;99.90;;;;;;4433232;28;657828;-69
2023/04/11 07:20:51;;;;;;;10.17;5.47;;;10.60;99.90;;;;;;4451440;28;658549;-70
2023/04/11 07:23:39;;;;;;;13.27;4.83;;;10.70;99.90;;;;;;4428318;28;659237;-69
2023/04/11 07:26:30;;;;;;;7.40;5.30;;;10.60;99.90;;;;;;4448488;28;659370;-69
2023/04/11 07:29:18;;;;;;;7.93;5.63;;;10.70;99.90;;;;;;4442753;28;659023;-69
2023/04/11 07:32:06;;;;;;;8.13;5.50;;;10.70;99.90;;;;;;4461952;28;658075;-69
2023/04/11 07:34:53;;;;;;;8.03;5.10;;;10.60;99.90;;;;;;4456703;28;658522;-70
2023/04/11 07:37:41;;;;;;;10.25;4.50;;;10.80;99.90;;;;;;4439185;28;657827;-69
2023/04/11 07:40:30;;;;;;;8.67;4.80;;;11.00;99.90;;;;;;4452878;28;658835;-70
2023/04/11 07:43:17;;;;;;;9.27;4.63;;;11.10;99.90;;;;;;4428484;28;659274;-70
2023/04/11 07:46:04;;;;;;;9.23;5.50;;;11.20;99.90;;;;;;4452294;28;658070;-69
2023/04/11 07:48:51;;;;;;;10.93;5.60;;;11.40;99.90;;;;;;4449365;28;657954;-69
2023/04/11 07:51:39;;;;;;;7.70;5.33;;;11.50;99.90;;;;;;4470077;28;659861;-70
2023/04/11 07:54:27;;;;;;;9.03;6.07;;;11.60;99.90;;;;;;4430432;28;657762;-69
2023/04/11 07:57:15;;;;;;;8.50;5.67;;;11.80;99.90;;;;;;4451303;28;658817;-70
2023/04/11 08:00:03;;;;;;;12.50;5.87;;;11.70;99.90;;;;;;4432491;28;659214;-70
2023/04/11 08:02:51;;;;;;;9.40;5.73;;;12.10;99.90;;;;;;4437411;28;658927;-70
2023/04/11 08:05:38;;;;;;;10.00;6.20;;;12.30;99.90;;;;;;4451886;28;658198;-69
2023/04/11 08:08:25;;;;;;;8.27;5.50;;;12.30;99.90;;;;;;4437208;28;658706;-70
2023/04/11 08:11:13;;;;;;;11.40;6.47;;;12.50;99.90;;;;;;4467564;28;659003;-69
2023/04/11 08:14:02;;;;;;;9.80;5.80;;;12.40;99.90;;;;;;4460328;28;658827;-70
2023/04/11 08:16:49;;;;;;;12.40;7.00;;;12.00;99.90;;;;;;4467844;28;657840;-70
2023/04/11 08:19:36;;;;;;;8.07;5.30;;;12.20;99.90;;;;;;4430956;28;659425;-70
2023/04/11 08:22:24;;;;;;;12.17;5.90;;;12.30;99.90;;;;;;4451632;28;658466;-69
2023/04/11 08:25:11;;;;;;;9.00;5.87;;;12.50;99.90;;;;;;4429334;28;659412;-70
2023/04/11 08:27:59;;;;;;;9.23;5.90;;;12.60;99.90;;;;;;4467391;28;658060;-70
2023/04/11 08:30:49;;;;;;;12.10;6.43;;;12.90;99.90;;;;;;4431887;28;657389;-70
2023/04/11 08:33:36;;;;;;;14.33;6.20;;;13.20;99.90;;;;;;4427914;28;658554;-70
2023/04/11 08:36:23;;;;;;;8.73;5.57;;;13.50;99.90;;;;;;4450587;28;659555;-70
2023/04/11 08:39:11;;;;;;;11.10;6.27;;;13.30;99.90;;;;;;4433076;28;657667;-70
2023/04/11 08:41:58;;;;;;;12.80;6.00;;;13.30;99.90;;;;;;4454018;28;659212;-70
2023/04/11 08:44:50;;;;;;;9.10;5.87;;;13.40;99.90;;;;;;4430783;28;658940;-73
2023/04/11 08:47:39;;;;;;;12.67;6.60;;;13.30;99.90;;;;;;4431119;28;658408;-70
2023/04/11 08:50:26;;;;;;;10.80;6.67;;;13.30;99.90;;;;;;4430383;28;658570;-70
2023/04/11 08:53:13;;;;;;;10.23;6.90;;;13.20;99.90;;;;;;4431523;28;659019;-70
2023/04/11 08:56:00;;;;;;;11.70;6.93;;;13.10;99.90;;;;;;4412075;28;658443;-70
2023/04/11 08:58:48;;;;;;;18.07;6.83;;;13.20;99.90;;;;;;4447558;28;660062;-70
2023/04/11 09:01:36;;;;;;;11.20;6.80;;;13.30;99.90;;;;;;4428381;28;658393;-70
2023/04/11 09:04:24;;;;;;;12.93;7.30;;;13.30;99.90;;;;;;4452179;28;659356;-70
2023/04/11 09:07:11;;;;;;;14.30;7.40;;;13.20;99.90;;;;;;4428782;28;658619;-70
2023/04/11 09:09:59;;;;;;;11.90;6.83;;;13.10;99.90;;;;;;4447185;28;659319;-70
2023/04/11 09:12:46;;;;;;;17.73;7.77;;;13.40;99.90;;;;;;4424473;28;658732;-70
2023/04/11 09:15:34;;;;;;;11.13;7.00;;;13.70;99.90;;;;;;4447122;28;659021;-71
2023/04/11 09:18:31;;;;;;;11.83;7.10;;;13.80;99.90;;;;;;4425672;28;658458;-70
2023/04/11 09:21:20;;;;;;;13.33;7.23;;;14.20;99.90;;;;;;4423825;28;658415;-70
2023/04/11 09:24:16;;;;;;;13.37;7.20;;;14.40;99.90;;;;;;4428690;28;659383;-70
2023/04/11 09:27:11;;;;;;;11.60;7.00;;;14.70;99.90;;;;;;4423809;28;658859;-70
2023/04/11 09:29:58;;;;;;;12.23;7.20;;;15.20;99.90;;;;;;4424510;28;659475;-70
2023/04/11 09:32:47;;;;;;;15.87;7.87;;;15.70;99.90;;;;;;4433842;28;658925;-71
2023/04/11 09:35:34;;;;;;;12.47;7.33;;;15.90;99.90;;;;;;4447837;28;659477;-70
2023/04/11 09:38:30;;;;;;;11.27;5.47;;;16.30;99.90;;;;;;4412121;28;658723;-70
2023/04/11 09:41:29;;;;;;;12.13;5.90;;;16.70;99.90;;;;;;4385205;28;659438;-70
2023/04/11 09:44:16;;;;;;;9.50;5.90;;;16.80;99.90;;;;;;4401606;28;659908;-70
2023/04/11 09:47:04;;;;;;;7.57;4.60;;;17.10;99.90;;;;;;4449179;28;658049;-70
2023/04/11 09:49:51;;;;;;;8.67;4.73;;;17.20;99.90;;;;;;4427110;28;658181;-70
2023/04/11 09:52:41;;;;;;;10.80;5.00;;;17.10;98.80;;;;;;4449828;28;658200;-70
2023/04/11 09:55:30;;;;;;;8.23;5.10;;;17.10;98.90;;;;;;4425807;28;659370;-71
2023/04/11 09:58:17;;;;;;;10.13;4.50;;;17.10;97.30;;;;;;4426322;28;659628;-71
2023/04/11 10:01:06;;;;;;;7.00;4.60;;;17.00;88.80;;;;;;4453419;28;658491;-71
2023/04/11 10:03:53;;;;;;;9.93;5.63;;;16.90;95.60;;;;;;4443224;28;657866;-71
2023/04/11 10:06:43;;;;;;;10.53;5.40;;;16.50;97.80;;;;;;4431260;28;658054;-71
2023/04/11 10:09:31;;;;;;;12.23;5.20;;;16.90;98.10;;;;;;4430950;28;658532;-71
2023/04/11 10:12:31;;;;;;;8.50;5.33;;;16.90;95.70;;;;;;4451439;28;658895;-71
2023/04/11 10:15:19;;;;;;;9.93;4.97;;;16.80;99.10;;;;;;4446436;28;658777;-71
2023/04/11 10:18:09;;;;;;;9.90;4.50;;;16.70;96.90;;;;;;4449512;28;657961;-70
2023/04/11 10:20:56;;;;;;;4.77;3.63;;;16.30;92.70;;;;;;4450842;28;657818;-71
2023/04/11 10:24:07;;;;;;;8.00;4.30;;;16.10;93.30;;;;;;4451962;28;658261;-71
2023/04/11 10:26:57;;;;;;;10.17;4.73;;;16.40;92.90;;;;;;4426723;28;657323;-70
2023/04/11 10:29:52;;;;;;;8.83;4.30;;;16.60;93.90;;;;;;4455355;28;659042;-70
2023/04/11 10:32:41;;;;;;;6.73;4.43;;;16.80;95.40;;;;;;4426766;28;657729;-70
2023/04/11 10:35:29;;;;;;;7.90;5.03;;;17.10;94.30;;;;;;4469489;28;659648;-71
2023/04/11 10:38:49;;;;;;;7.47;4.43;;;17.50;95.70;;;;;;4429549;28;657820;-71
2023/04/11 10:41:37;;;;;;;7.53;4.20;;;17.60;92.50;;;;;;4408631;28;658505;-71
2023/04/11 10:44:24;;;;;;;8.15;4.57;;;18.10;90.00;;;;;;4449291;28;657542;-71
2023/04/11 10:47:18;;;;;;;6.53;4.37;;;18.40;85.30;;;;;;4433924;28;658281;-70
2023/04/11 10:50:22;;;;;;;8.00;4.37;;;18.70;86.20;;;;;;4420451;28;657510;-71
2023/04/11 10:53:13;;;;;;;7.40;4.10;;;19.10;78.40;;;;;;4410104;28;658516;-71
2023/04/11 10:56:01;;;;;;;5.90;4.03;;;19.10;72.80;;;;;;4419120;28;658095;-71
2023/04/11 10:58:50;;;;;;;9.20;4.20;;;18.90;69.90;;;;;;4454937;28;658594;-71
2023/04/11 11:01:37;;;;;;;6.80;4.37;;;19.00;74.10;;;;;;4428040;28;658603;-70
2023/04/11 11:04:32;;;;;;;7.73;4.47;;;19.40;69.60;;;;;;4451265;28;657736;-71
2023/04/11 11:07:19;;;;;;;6.40;4.47;;;19.70;74.50;;;;;;4431868;28;657419;-71
2023/04/11 11:10:08;;;;;;;6.57;4.20;;;19.40;68.00;;;;;;4428345;28;658288;-71
2023/04/11 11:12:55;;;;;;;6.77;4.07;;;19.20;69.70;;;;;;4436106;28;657513;-71
2023/04/11 11:15:47;;;;;;;9.40;4.30;;;19.30;61.80;;;;;;4455080;28;658115;-71
2023/04/11 11:18:34;;;;;;;9.03;4.20;;;19.20;62.90;;;;;;4427693;28;658286;-71
2023/04/11 11:21:26;;;;;;;7.30;4.00;;;19.30;63.10;;;;;;4431905;28;657542;-71
2023/04/11 11:24:13;;;;;;;6.97;3.90;;;19.50;63.10;;;;;;4427594;28;658706;-71
2023/04/11 11:27:00;;;;;;;8.60;4.30;;;19.50;60.40;;;;;;4436551;28;657873;-70
2023/04/11 11:29:47;;;;;;;7.27;4.30;;;18.80;61.60;;;;;;4450413;28;658991;-71
2023/04/11 11:32:35;;;;;;;8.53;4.40;;;19.30;69.20;;;;;;4450767;28;657874;-71
2023/04/11 11:35:22;;;;;;;8.83;4.80;;;19.70;60.10;;;;;;4427873;28;659009;-71
2023/04/11 11:38:11;;;;;;;8.00;4.90;;;20.10;62.60;;;;;;4450386;28;658408;-71
2023/04/11 11:40:58;;;;;;;9.10;4.90;;;20.20;58.90;;;;;;4427486;28;657450;-71
2023/04/11 11:43:45;;;;;;;7.13;4.40;;;20.60;59.30;;;;;;4430108;28;658027;-71
2023/04/11 11:46:34;;;;;;;9.70;4.83;;;20.40;55.20;;;;;;4450395;28;659495;-71
2023/04/11 11:49:21;;;;;;;8.53;4.87;;;18.10;58.10;;;;;;4428712;28;657876;-72
2023/04/11 11:52:08;;;;;;;10.67;4.63;;;18.30;62.00;;;;;;4461059;28;658689;-71
2023/04/11 11:54:57;;;;;;;8.57;4.37;;;18.50;60.90;;;;;;4431574;28;658575;-71
2023/04/11 11:57:44;;;;;;;9.50;4.80;;;18.60;59.80;;;;;;4451361;28;658344;-71
2023/04/11 12:00:36;;;;;;;6.27;4.83;;;18.80;61.20;;;;;;4432443;28;658185;-71
2023/04/11 12:03:24;;;;;;;7.40;4.40;;;19.40;61.60;;;;;;4425246;28;658895;-72
2023/04/11 12:06:12;;;;;;;8.83;4.70;;;20.20;60.50;;;;;;4432715;28;657620;-71
2023/04/11 12:09:03;;;;;;;7.83;4.73;;;20.60;59.20;;;;;;4455830;28;657660;-71
2023/04/11 12:11:55;;;;;;;8.00;4.37;;;20.90;56.00;;;;;;4408856;28;657454;-69
2023/04/11 12:14:51;;;;;;;7.83;4.80;;;20.50;52.90;;;;;;4448292;28;658999;-70
2023/04/11 12:17:38;;;;;;;8.10;4.77;;;19.20;55.00;;;;;;4444514;28;658219;-71
2023/04/11 12:20:26;;;;;;;8.77;4.30;;;17.40;57.90;;;;;;4448920;28;658078;-70
2023/04/11 12:23:13;;;;;;;6.53;4.73;;;18.00;56.60;;;;;;4450604;28;659134;-71
2023/04/11 12:26:00;;;;;;;7.27;3.90;;;18.30;58.20;;;;;;4432854;28;657214;-71
2023/04/11 12:28:49;;;;;;;7.97;4.63;;;18.00;55.50;;;;;;4451698;28;659028;-71
2023/04/11 12:31:37;;;;;;;7.90;4.70;;;17.60;56.80;;;;;;4431674;28;658808;-72
2023/04/11 12:34:24;;;;;;;7.63;4.53;;;18.30;57.80;;;;;;4451781;28;657487;-71
2023/04/11 12:37:11;;;;;;;7.73;4.27;;;19.20;60.00;;;;;;4447862;28;657535;-71
2023/04/11 12:39:58;;;;;;;10.60;4.67;;;19.90;56.60;;;;;;4450454;28;659430;-71
2023/04/11 12:42:46;;;;;;;8.03;4.67;;;19.30;54.90;;;;;;4430224;28;658308;-71
2023/04/11 12:45:35;;;;;;;9.00;4.80;;;19.10;52.90;;;;;;4450502;28;658792;-71
2023/04/11 12:48:22;;;;;;;5.77;3.90;;;18.20;57.40;;;;;;4428789;28;659352;-70
2023/04/11 12:51:09;;;;;;;5.83;3.90;;;18.40;50.40;;;;;;4450601;28;657963;-69
2023/04/11 12:53:56;;;;;;;8.17;5.03;;;17.20;49.40;;;;;;4430609;28;657529;-71
2023/04/11 12:56:44;;;;;;;8.13;4.53;;;16.80;52.80;;;;;;4451021;28;658963;-71
2023/04/11 12:59:31;;;;;;;8.73;5.57;;;16.80;53.10;;;;;;4431846;28;658331;-70
2023/04/11 13:02:19;;;;;;;8.73;5.60;;;16.00;55.10;;;;;;4453997;28;657838;-71
2023/04/11 13:05:08;;;;;;;7.53;4.80;;;15.20;58.20;;;;;;4427247;28;658292;-71
2023/04/11 13:07:55;;;;;;;6.97;4.50;;;15.50;61.20;;;;;;4447990;28;657555;-71
2023/04/11 13:10:42;;;;;;;10.07;5.20;;;15.90;60.10;;;;;;4470899;28;658215;-72
2023/04/11 13:13:29;;;;;;;11.40;5.63;;;15.90;57.10;;;;;;4448785;28;658482;-71
2023/04/11 13:16:17;;;;;;;8.60;4.53;;;16.40;57.50;;;;;;4426248;28;659589;-71
2023/04/11 13:19:05;;;;;;;9.80;5.27;;;15.80;54.30;;;;;;4454357;28;657364;-71
2023/04/11 13:21:52;;;;;;;9.07;4.50;;;15.50;55.50;;;;;;4427762;28;658839;-71
2023/04/11 13:24:40;;;;;;;7.33;4.60;;;16.10;54.20;;;;;;4446623;28;657631;-70
2023/04/11 13:27:27;;;;;;;7.30;4.47;;;16.30;55.00;;;;;;4454292;28;658195;-71
2023/04/11 13:30:15;;;;;;;7.50;4.30;;;16.20;53.80;;;;;;4466775;28;657470;-72
2023/04/11 13:33:02;;;;;;;8.10;4.50;;;16.70;54.90;;;;;;4427057;28;659324;-72
2023/04/11 13:35:51;;;;;;;9.07;4.80;;;17.60;57.20;;;;;;4450719;28;658059;-72
2023/04/11 13:38:38;;;;;;;8.77;4.80;;;17.80;54.10;;;;;;4426029;28;658189;-71
2023/04/11 13:41:25;;;;;;;7.37;5.20;;;17.60;52.50;;;;;;4431274;28;658052;-71
2023/04/11 13:44:12;;;;;;;7.77;4.73;;;17.50;53.40;;;;;;4450721;28;659071;-71
2023/04/11 13:47:01;;;;;;;10.67;5.50;;;17.30;51.40;;;;;;4449182;28;657667;-71
2023/04/11 13:49:48;;;;;;;8.97;5.00;;;17.30;54.00;;;;;;4452753;28;659535;-72
2023/04/11 13:52:37;;;;;;;8.20;5.27;;;17.30;53.40;;;;;;4435600;28;657724;-71
2023/04/11 13:55:24;;;;;;;9.57;5.37;;;16.80;52.20;;;;;;4470312;28;657516;-71
2023/04/11 13:58:11;;;;;;;9.53;5.13;;;16.40;53.00;;;;;;4447229;28;657383;-71
2023/04/11 14:00:58;;;;;;;8.10;5.10;;;16.50;54.00;;;;;;4470073;28;658775;-72
2023/04/11 14:03:46;;;;;;;7.80;4.90;;;16.90;56.20;;;;;;4451116;28;657887;-72
2023/04/11 14:06:34;;;;;;;8.47;5.70;;;17.80;58.50;;;;;;4453557;28;659069;-72
2023/04/11 14:09:22;;;;;;;8.30;5.43;;;17.20;51.30;;;;;;4435312;28;658087;-71
2023/04/11 14:12:10;;;;;;;11.23;5.70;;;16.80;52.50;;;;;;4452993;28;657247;-72
2023/04/11 14:14:57;;;;;;;7.23;4.80;;;16.50;52.70;;;;;;4428949;28;659743;-71
2023/04/11 14:17:46;;;;;;;8.00;4.80;;;16.60;52.80;;;;;;4453101;28;658416;-71
2023/04/11 14:20:33;;;;;;;9.10;5.40;;;16.50;51.20;;;;;;4446516;28;657764;-72